createdAt,value
2022-09-07T00:00:56.951Z,6.68
2022-09-07T00:05:46.368Z,10.98
2022-09-07T00:10:32.777Z,7.78
2022-09-07T00:15:22.321Z,9.48
2022-09-07T00:20:11.017Z,9.50
2022-09-07T00:24:56.770Z,9.70
2022-09-07T00:29:42.948Z,9.63
2022-09-07T00:34:31.532Z,10.75
2022-09-07T00:39:17.671Z,9.25
2022-09-07T00:44:38.618Z,9.90
2022-09-07T00:49:26.309Z,8.00
2022-09-07T00:54:20.549Z,8.82
2022-09-07T00:59:07.227Z,13.40
2022-09-07T01:03:55.786Z,14.25
2022-09-07T01:08:42.175Z,9.70
2022-09-07T01:13:31.148Z,9.15
2022-09-07T01:18:29.575Z,11.38
2022-09-07T01:23:38.310Z,12.25
2022-09-07T01:28:30.638Z,8.68
2022-09-07T01:33:36.358Z,11.52
2022-09-07T01:38:27.759Z,8.25
2022-09-07T01:43:18.371Z,14.68
2022-09-07T01:48:10.139Z,16.10
2022-09-07T01:52:59.962Z,13.82
2022-09-07T01:57:49.867Z,12.68
2022-09-07T02:02:42.559Z,11.05
2022-09-07T02:07:37.783Z,14.32
2022-09-07T02:12:29.052Z,12.07
2022-09-07T02:17:20.389Z,9.98
2022-09-07T02:22:10.230Z,14.33
2022-09-07T02:27:01.296Z,13.00
2022-09-07T02:31:47.703Z,8.77
2022-09-07T02:36:38.564Z,13.00
2022-09-07T02:41:35.211Z,13.82
2022-09-07T02:46:40.292Z,12.82
2022-09-07T02:51:34.000Z,15.40
2022-09-07T02:56:34.056Z,15.82
2022-09-07T03:01:35.568Z,13.65
2022-09-07T03:06:28.347Z,11.70
2022-09-07T03:11:14.615Z,14.18
2022-09-07T03:16:01.347Z,10.40
2022-09-07T03:20:49.887Z,12.20
2022-09-07T03:25:35.945Z,11.80
2022-09-07T03:30:21.835Z,15.30
2022-09-07T03:35:09.533Z,12.73
2022-09-07T03:39:58.535Z,15.10
2022-09-07T03:44:44.821Z,14.60
2022-09-07T03:49:30.628Z,13.50
2022-09-07T03:54:16.643Z,14.48
2022-09-07T03:59:05.192Z,12.10
2022-09-07T04:03:51.411Z,14.25
2022-09-07T04:08:39.414Z,14.18
2022-09-07T04:13:25.639Z,14.20
2022-09-07T04:18:16.631Z,10.07
2022-09-07T04:23:02.659Z,14.32
2022-09-07T04:27:48.863Z,11.80
2022-09-07T04:32:34.881Z,14.18
2022-09-07T04:37:23.214Z,12.25
2022-09-07T04:42:09.697Z,10.55
2022-09-07T04:46:55.411Z,11.57
2022-09-07T04:51:43.225Z,13.15
2022-09-07T04:56:35.055Z,13.90
2022-09-07T05:01:25.780Z,13.75
2022-09-07T05:06:12.819Z,11.82
2022-09-07T05:11:00.172Z,13.23
2022-09-07T05:15:48.648Z,12.18
2022-09-07T05:20:34.640Z,8.98
2022-09-07T05:25:20.365Z,9.07
2022-09-07T05:30:07.062Z,14.45
2022-09-07T05:34:56.260Z,13.23
2022-09-07T05:39:42.395Z,13.07
2022-09-07T05:44:44.922Z,12.77
2022-09-07T05:49:31.518Z,15.13
2022-09-07T05:54:19.888Z,13.20
2022-09-07T05:59:05.956Z,13.73
2022-09-07T06:03:51.695Z,15.15
2022-09-07T06:08:39.715Z,15.05
2022-09-07T06:13:28.252Z,12.00
2022-09-07T06:18:14.308Z,15.57
2022-09-07T06:23:00.277Z,12.40
2022-09-07T06:27:46.269Z,13.82
2022-09-07T06:37:28.577Z,13.52
2022-09-07T06:42:14.325Z,12.55
2022-09-07T06:52:09.225Z,12.45
2022-09-07T06:56:55.904Z,13.57
2022-09-07T07:01:41.880Z,11.50
2022-09-07T07:06:28.398Z,15.93
2022-09-07T07:11:18.542Z,18.73
2022-09-07T07:16:08.480Z,12.90
2022-09-07T07:20:54.627Z,14.35
2022-09-07T07:25:40.413Z,14.65
2022-09-07T07:30:29.049Z,14.25
2022-09-07T07:35:15.724Z,16.50
2022-09-07T07:40:19.878Z,9.35
2022-09-07T07:50:34.333Z,11.65
2022-09-07T08:00:43.789Z,13.40
2022-09-07T08:05:38.805Z,18.42
2022-09-07T08:10:27.453Z,19.85
2022-09-07T08:15:14.061Z,19.30
2022-09-07T08:20:00.098Z,22.15
2022-09-07T08:24:48.920Z,12.50
2022-09-07T08:29:35.584Z,11.95
2022-09-07T08:34:22.250Z,7.72
2022-09-07T08:39:08.181Z,9.93
2022-09-07T08:44:01.841Z,7.10
2022-09-07T08:48:48.272Z,5.25
2022-09-07T08:53:34.548Z,9.00
2022-09-07T08:58:47.821Z,7.97
2022-09-07T09:03:33.524Z,7.57
2022-09-07T09:08:42.072Z,4.90
2022-09-07T09:13:56.028Z,7.25
2022-09-07T09:18:59.456Z,10.77
2022-09-07T09:23:47.681Z,10.25
2022-09-07T09:28:33.427Z,10.43
2022-09-07T09:33:22.629Z,7.65
2022-09-07T09:38:32.436Z,9.15
2022-09-07T09:43:23.428Z,9.15
2022-09-07T09:48:15.340Z,10.35
2022-09-07T09:53:03.934Z,11.13
2022-09-07T10:08:22.616Z,10.15
2022-09-07T10:13:27.108Z,6.72
2022-09-07T10:18:22.240Z,5.60
2022-09-07T10:23:09.877Z,7.95
2022-09-07T10:28:05.242Z,7.70
2022-09-07T10:33:05.312Z,5.32
2022-09-07T10:38:01.687Z,8.88
2022-09-07T10:48:16.727Z,6.75
2022-09-07T11:04:15.464Z,7.93
2022-09-07T11:09:27.746Z,13.85
2022-09-07T11:14:17.745Z,9.68
2022-09-07T11:24:25.673Z,8.50
2022-09-07T11:29:34.930Z,8.18
2022-09-07T11:34:27.142Z,5.38
2022-09-07T11:39:21.935Z,9.55
2022-09-07T11:44:21.003Z,7.20
2022-09-07T11:49:09.470Z,8.52
2022-09-07T11:53:58.082Z,5.50
2022-09-07T11:59:12.503Z,7.32
2022-09-07T12:04:26.599Z,8.82
2022-09-07T12:09:32.595Z,7.10
2022-09-07T12:14:40.862Z,7.53
2022-09-07T12:19:28.064Z,7.85
2022-09-07T12:24:35.566Z,5.72
2022-09-07T12:29:24.486Z,4.25
2022-09-07T12:34:45.642Z,6.38
2022-09-07T12:39:35.432Z,6.57
2022-09-07T12:44:29.409Z,8.73
2022-09-07T12:49:47.635Z,6.03
2022-09-07T12:54:41.311Z,6.78
2022-09-07T12:59:43.094Z,7.63
2022-09-07T13:04:53.268Z,6.50
2022-09-07T13:09:42.492Z,6.50
2022-09-07T13:14:29.731Z,6.90
2022-09-07T13:19:17.819Z,6.80
2022-09-07T13:24:46.247Z,8.77
2022-09-07T13:29:41.882Z,6.80
2022-09-07T13:34:51.251Z,7.70
2022-09-07T13:39:43.425Z,6.43
2022-09-07T13:44:33.471Z,5.57
2022-09-07T13:49:34.105Z,4.65
2022-09-07T13:54:29.210Z,7.93
2022-09-07T13:59:20.941Z,4.40
2022-09-07T14:04:09.528Z,5.63
2022-09-07T14:08:58.800Z,6.50
2022-09-07T14:13:44.090Z,9.98
2022-09-07T14:18:34.562Z,5.80
2022-09-07T14:23:28.297Z,6.70
2022-09-07T14:28:39.888Z,8.50
2022-09-07T14:33:25.731Z,7.28
2022-09-07T14:43:33.794Z,8.75
2022-09-07T14:48:32.411Z,5.70
2022-09-07T14:53:37.359Z,5.63
2022-09-07T14:58:27.663Z,6.70
2022-09-07T15:03:34.657Z,4.70
2022-09-07T15:08:24.033Z,4.90
2022-09-07T15:13:32.577Z,10.30
2022-09-07T15:18:50.155Z,4.82
2022-09-07T15:23:39.860Z,4.82
2022-09-07T15:33:37.446Z,9.52
2022-09-07T15:43:33.036Z,9.55
2022-09-07T15:48:25.452Z,8.05
2022-09-07T15:58:18.783Z,9.52
2022-09-07T16:03:08.431Z,7.28
2022-09-07T16:13:02.375Z,6.10
2022-09-07T16:17:53.852Z,8.48
2022-09-07T16:27:47.250Z,9.82
2022-09-07T16:32:47.887Z,10.45
2022-09-07T16:37:33.662Z,13.48
2022-09-07T16:42:22.617Z,11.43
2022-09-07T16:47:08.352Z,10.65
2022-09-07T16:51:56.140Z,7.97
2022-09-07T16:56:41.546Z,10.65
2022-09-07T17:01:32.954Z,11.70
2022-09-07T17:06:20.435Z,12.10
2022-09-07T17:11:07.550Z,13.90
2022-09-07T17:15:52.993Z,14.68
2022-09-07T17:20:42.512Z,10.23
2022-09-07T17:25:28.419Z,8.85
2022-09-07T17:30:14.855Z,11.65
2022-09-07T17:35:00.985Z,12.95
2022-09-07T17:39:48.736Z,11.93
2022-09-07T17:44:38.059Z,13.27
2022-09-07T17:49:24.227Z,10.98
2022-09-07T17:54:11.639Z,11.32
2022-09-07T18:04:05.830Z,10.50
2022-09-07T18:08:51.225Z,12.70
2022-09-07T18:13:37.317Z,7.90
2022-09-07T18:18:25.058Z,12.82
2022-09-07T18:23:10.798Z,12.80
2022-09-07T18:33:02.158Z,10.32
2022-09-07T18:37:50.073Z,10.80
2022-09-07T18:42:35.782Z,14.35
2022-09-07T18:47:23.561Z,9.10
2022-09-07T18:57:22.584Z,13.40
2022-09-07T19:02:08.736Z,9.20
2022-09-07T19:06:54.438Z,12.45
2022-09-07T19:11:39.488Z,9.48
2022-09-07T19:16:28.252Z,12.90
2022-09-07T19:21:16.804Z,11.75
2022-09-07T19:26:03.045Z,14.20
2022-09-07T19:30:48.081Z,12.90
2022-09-07T19:35:37.896Z,12.88
2022-09-07T19:40:22.984Z,13.05
2022-09-07T19:45:09.881Z,10.98
2022-09-07T19:49:55.177Z,12.55
2022-09-07T19:54:43.618Z,15.68
2022-09-07T19:59:28.699Z,14.20
2022-09-07T20:04:19.801Z,11.40
2022-09-07T20:09:05.692Z,14.40
2022-09-07T20:13:53.852Z,13.63
2022-09-07T20:18:39.133Z,15.57
2022-09-07T20:23:24.598Z,14.30
2022-09-07T20:28:09.681Z,17.40
2022-09-07T20:32:57.575Z,19.52
2022-09-07T20:37:43.693Z,17.90
2022-09-07T20:42:29.759Z,16.92
2022-09-07T20:47:14.850Z,12.77
2022-09-07T20:52:02.848Z,14.55
2022-09-07T20:56:48.104Z,22.00
2022-09-07T21:01:35.345Z,9.52
2022-09-07T21:06:22.283Z,15.77
2022-09-07T21:11:15.336Z,13.85
2022-09-07T21:16:00.429Z,15.07
2022-09-07T21:21:02.628Z,10.15
2022-09-07T21:25:52.797Z,20.73
2022-09-07T21:30:40.447Z,14.07
2022-09-07T21:35:25.846Z,15.95
2022-09-07T21:40:12.074Z,13.18
2022-09-07T21:44:57.450Z,14.15
2022-09-07T21:49:45.140Z,11.35
2022-09-07T21:54:30.410Z,14.93
2022-09-07T21:59:15.591Z,18.55
2022-09-07T22:04:02.742Z,13.85
2022-09-07T22:08:50.623Z,24.23
2022-09-07T22:13:35.796Z,16.58
2022-09-07T22:18:21.189Z,21.77
2022-09-07T22:23:07.070Z,23.25
2022-09-07T22:27:55.716Z,22.42
2022-09-07T22:32:41.267Z,20.00
2022-09-07T22:37:27.101Z,16.15
2022-09-07T22:42:12.806Z,18.55
2022-09-07T22:47:01.654Z,19.98
2022-09-07T22:51:51.072Z,14.95
2022-09-07T22:56:38.847Z,15.90
2022-09-07T23:01:26.606Z,18.90
2022-09-07T23:06:22.215Z,19.83
2022-09-07T23:11:08.412Z,21.92
2022-09-07T23:15:53.907Z,23.75
2022-09-07T23:20:38.994Z,22.27
2022-09-07T23:25:29.750Z,17.73
2022-09-07T23:30:16.311Z,16.45
2022-09-07T23:35:03.870Z,19.30
2022-09-07T23:39:48.952Z,20.38
2022-09-07T23:44:36.900Z,24.15
2022-09-07T23:49:21.910Z,19.33
2022-09-07T23:54:07.271Z,22.88
2022-09-07T23:58:52.315Z,17.50
